createdAt,value
2022-09-07T00:00:56.464Z,99807.78
2022-09-07T00:03:24.952Z,99807.81
2022-09-07T00:05:53.840Z,99818.75
2022-09-07T00:08:25.165Z,99813.72
2022-09-07T00:10:56.252Z,99814.50
2022-09-07T00:13:25.560Z,99810.22
2022-09-07T00:15:53.624Z,99803.41
2022-09-07T00:18:22.038Z,99804.25
2022-09-07T00:20:59.303Z,99800.13
2022-09-07T00:23:28.329Z,99798.50
2022-09-07T00:26:00.706Z,99798.47
2022-09-07T00:28:28.810Z,99795.88
2022-09-07T00:30:56.781Z,99797.41
2022-09-07T00:33:24.910Z,99801.56
2022-09-07T00:35:52.809Z,99793.06
2022-09-07T00:38:20.816Z,99796.44
2022-09-07T00:40:48.749Z,99805.66
2022-09-07T00:43:34.742Z,99804.75
2022-09-07T00:46:03.669Z,99810.63
2022-09-07T00:48:35.793Z,99816.50
2022-09-07T00:51:08.468Z,99812.25
2022-09-07T00:53:41.584Z,99805.56
2022-09-07T00:56:10.868Z,99794.59
2022-09-07T00:58:43.075Z,99798.81
2022-09-07T01:01:11.337Z,99811.44
2022-09-07T01:03:43.194Z,99806.38
2022-09-07T01:06:16.670Z,99789.53
2022-09-07T01:08:46.115Z,99798.00
2022-09-07T01:11:14.513Z,99800.53
2022-09-07T01:13:46.184Z,99797.19
2022-09-07T01:16:25.018Z,99802.19
2022-09-07T01:19:01.744Z,99798.84
2022-09-07T01:21:40.570Z,99796.25
2022-09-07T01:24:32.711Z,99787.78
2022-09-07T01:27:23.689Z,99783.69
2022-09-07T01:30:00.252Z,99785.50
2022-09-07T01:32:40.106Z,99779.75
2022-09-07T01:35:23.137Z,99767.16
2022-09-07T01:37:57.985Z,99767.25
2022-09-07T01:40:35.539Z,99767.28
2022-09-07T01:43:08.133Z,99762.22
2022-09-07T01:45:42.272Z,99765.59
2022-09-07T01:48:15.840Z,99767.28
2022-09-07T01:50:47.839Z,99763.81
2022-09-07T01:53:20.056Z,99762.97
2022-09-07T01:55:51.362Z,99766.31
2022-09-07T01:58:22.846Z,99767.19
2022-09-07T02:00:56.417Z,99775.56
2022-09-07T02:03:31.840Z,99780.53
2022-09-07T02:06:04.758Z,99770.34
2022-09-07T02:08:37.465Z,99762.75
2022-09-07T02:11:11.631Z,99756.09
2022-09-07T02:13:43.259Z,99747.75
2022-09-07T02:16:17.467Z,99755.41
2022-09-07T02:18:48.595Z,99757.06
2022-09-07T02:21:20.550Z,99751.19
2022-09-07T02:23:52.151Z,99752.84
2022-09-07T02:26:23.521Z,99747.75
2022-09-07T02:28:52.251Z,99746.91
2022-09-07T02:31:21.798Z,99747.75
2022-09-07T02:33:49.845Z,99754.53
2022-09-07T02:36:21.088Z,99755.38
2022-09-07T02:38:49.085Z,99761.25
2022-09-07T02:41:32.566Z,99753.66
2022-09-07T02:44:01.702Z,99758.72
2022-09-07T02:46:43.166Z,99757.06
2022-09-07T02:49:26.346Z,99754.56
2022-09-07T02:52:06.873Z,99748.63
2022-09-07T02:54:50.137Z,99750.31
2022-09-07T02:57:27.396Z,99745.22
2022-09-07T03:00:05.661Z,99741.78
2022-09-07T03:02:44.276Z,99731.56
2022-09-07T03:05:19.878Z,99740.78
2022-09-07T03:07:53.903Z,99727.38
2022-09-07T03:10:22.397Z,99733.22
2022-09-07T03:12:51.388Z,99727.25
2022-09-07T03:15:21.662Z,99737.31
2022-09-07T03:17:51.033Z,99737.31
2022-09-07T03:20:20.046Z,99741.50
2022-09-07T03:22:49.680Z,99740.66
2022-09-07T03:25:17.985Z,99745.72
2022-09-07T03:27:46.281Z,99743.22
2022-09-07T03:30:15.318Z,99738.13
2022-09-07T03:32:46.040Z,99737.25
2022-09-07T03:35:16.784Z,99738.94
2022-09-07T03:37:44.856Z,99734.81
2022-09-07T03:40:15.083Z,99728.09
2022-09-07T03:42:43.757Z,99731.53
2022-09-07T03:45:12.306Z,99728.19
2022-09-07T03:47:40.667Z,99734.06
2022-09-07T03:50:09.380Z,99736.59
2022-09-07T03:52:39.213Z,99731.59
2022-09-07T03:55:07.747Z,99720.63
2022-09-07T03:57:36.134Z,99734.97
2022-09-07T04:00:05.309Z,99733.34
2022-09-07T04:02:40.425Z,99740.94
2022-09-07T04:05:09.273Z,99742.63
2022-09-07T04:07:38.559Z,99744.34
2022-09-07T04:10:07.120Z,99750.19
2022-09-07T04:12:35.010Z,99747.66
2022-09-07T04:15:02.925Z,99740.09
2022-09-07T04:17:31.249Z,99745.94
2022-09-07T04:19:59.162Z,99746.00
2022-09-07T04:22:27.041Z,99751.91
2022-09-07T04:24:56.356Z,99755.28
2022-09-07T04:27:24.252Z,99748.53
2022-09-07T04:29:52.124Z,99751.06
2022-09-07T04:32:20.014Z,99750.19
2022-09-07T04:34:48.793Z,99745.16
2022-09-07T04:37:16.707Z,99746.03
2022-09-07T04:39:44.608Z,99747.72
2022-09-07T04:42:13.979Z,99757.81
2022-09-07T04:44:41.945Z,99756.09
2022-09-07T04:47:09.879Z,99749.41
2022-09-07T04:49:38.652Z,99751.91
2022-09-07T04:52:06.580Z,99751.94
2022-09-07T04:54:34.517Z,99751.09
2022-09-07T04:57:02.413Z,99756.94
2022-09-07T04:59:31.750Z,99756.06
2022-09-07T05:02:00.409Z,99751.81
2022-09-07T05:04:28.357Z,99765.38
2022-09-07T05:06:56.268Z,99772.16
2022-09-07T05:09:24.167Z,99768.78
2022-09-07T05:11:52.377Z,99772.19
2022-09-07T05:14:20.245Z,99770.53
2022-09-07T05:16:49.612Z,99765.50
2022-09-07T05:19:18.200Z,99767.25
2022-09-07T05:21:46.101Z,99766.44
2022-09-07T05:24:14.090Z,99765.59
2022-09-07T05:26:42.345Z,99770.66
2022-09-07T05:32:00.906Z,99763.09
2022-09-07T05:37:01.979Z,99764.75
2022-09-07T05:39:30.403Z,99761.38
2022-09-07T05:41:58.448Z,99758.88
2022-09-07T05:47:11.585Z,99770.72
2022-09-07T05:49:39.615Z,99774.06
2022-09-07T05:52:07.765Z,99774.09
2022-09-07T05:54:35.696Z,99773.28
2022-09-07T05:57:03.983Z,99775.81
2022-09-07T05:59:31.941Z,99769.91
2022-09-07T06:02:00.425Z,99764.88
2022-09-07T06:04:29.742Z,99770.75
2022-09-07T06:07:21.011Z,99766.53
2022-09-07T06:12:33.640Z,99769.09
2022-09-07T06:15:02.048Z,99767.41
2022-09-07T06:17:30.993Z,99773.31
2022-09-07T06:20:00.721Z,99764.03
2022-09-07T06:22:30.950Z,99763.22
2022-09-07T06:24:59.696Z,99752.25
2022-09-07T06:27:27.670Z,99750.56
2022-09-07T06:29:55.988Z,99752.25
2022-09-07T06:35:13.502Z,99759.84
2022-09-07T06:37:41.971Z,99748.91
2022-09-07T06:40:11.654Z,99752.28
2022-09-07T06:42:39.705Z,99756.50
2022-09-07T06:45:11.294Z,99755.66
2022-09-07T06:47:39.910Z,99757.34
2022-09-07T06:50:09.042Z,99761.56
2022-09-07T06:55:28.688Z,99755.66
2022-09-07T06:57:56.624Z,99757.31
2022-09-07T07:00:24.725Z,99755.63
2022-09-07T07:02:52.954Z,99752.25
2022-09-07T07:05:21.166Z,99755.63
2022-09-07T07:07:50.644Z,99745.50
2022-09-07T07:10:23.725Z,99750.53
2022-09-07T07:12:56.717Z,99755.56
2022-09-07T07:15:26.689Z,99751.31
2022-09-07T07:17:59.177Z,99750.41
2022-09-07T07:20:33.730Z,99748.66
2022-09-07T07:23:03.309Z,99750.34
2022-09-07T07:25:31.508Z,99749.44
2022-09-07T07:30:47.413Z,99754.41
2022-09-07T07:33:15.329Z,99756.06
2022-09-07T07:35:43.272Z,99750.16
2022-09-07T07:43:48.696Z,99761.22
2022-09-07T07:46:17.567Z,99766.31
2022-09-07T07:48:48.906Z,99760.41
2022-09-07T07:51:16.780Z,99767.16
2022-09-07T07:53:46.173Z,99762.09
2022-09-07T07:56:14.673Z,99762.91
2022-09-07T07:58:46.661Z,99768.00
2022-09-07T08:01:16.385Z,99762.88
2022-09-07T08:03:45.915Z,99764.53
2022-09-07T08:06:15.510Z,99767.91
2022-09-07T08:08:44.644Z,99758.59
2022-09-07T08:11:16.857Z,99779.66
2022-09-07T08:13:46.309Z,99770.34
2022-09-07T08:16:15.201Z,99771.19
2022-09-07T08:18:46.946Z,99770.31
2022-09-07T08:21:16.860Z,99778.75
2022-09-07T08:23:44.700Z,99775.38
2022-09-07T08:26:14.106Z,99774.53
2022-09-07T08:28:45.478Z,99774.47
2022-09-07T08:31:15.454Z,99775.28
2022-09-07T08:33:43.919Z,99771.81
2022-09-07T08:36:13.992Z,99761.63
2022-09-07T08:38:42.646Z,99753.19
2022-09-07T08:41:50.892Z,99769.97
2022-09-07T08:44:23.463Z,99767.41
2022-09-07T08:46:55.805Z,99772.44
2022-09-07T08:49:31.159Z,99771.56
2022-09-07T08:52:02.747Z,99761.38
2022-09-07T08:54:30.741Z,99757.09
2022-09-07T09:00:02.047Z,99762.94
2022-09-07T09:02:33.652Z,99759.44
2022-09-07T09:05:21.272Z,99756.03
2022-09-07T09:08:04.101Z,99750.88
2022-09-07T09:10:40.727Z,99755.88
2022-09-07T09:13:18.309Z,99749.06
2022-09-07T09:15:56.134Z,99756.69
2022-09-07T09:18:44.653Z,99751.63
2022-09-07T09:21:16.000Z,99744.03
2022-09-07T09:23:45.483Z,99747.50
2022-09-07T09:26:16.628Z,99749.19
2022-09-07T09:28:45.811Z,99744.00
2022-09-07T09:31:19.186Z,99738.88
2022-09-07T09:34:09.109Z,99739.53
2022-09-07T09:36:43.145Z,99740.34
2022-09-07T09:39:29.710Z,99738.63
2022-09-07T09:42:00.814Z,99747.09
2022-09-07T09:44:34.714Z,99736.94
2022-09-07T09:49:53.527Z,99737.66
2022-09-07T09:52:29.964Z,99735.09
2022-09-07T09:55:23.200Z,99734.22
2022-09-07T10:04:01.545Z,99733.31
2022-09-07T10:06:32.324Z,99726.50
2022-09-07T10:09:02.336Z,99729.94
2022-09-07T10:14:36.118Z,99726.59
2022-09-07T10:17:14.971Z,99727.38
2022-09-07T10:19:44.063Z,99719.59
2022-09-07T10:22:24.996Z,99721.22
2022-09-07T10:24:53.016Z,99719.50
2022-09-07T10:27:22.140Z,99718.53
2022-09-07T10:29:49.956Z,99715.91
2022-09-07T10:32:28.780Z,99722.59
2022-09-07T10:35:07.025Z,99716.53
2022-09-07T10:37:52.141Z,99712.28
2022-09-07T10:40:29.536Z,99724.97
2022-09-07T10:43:22.252Z,99709.66
2022-09-07T10:46:03.527Z,99709.66
2022-09-07T10:48:39.434Z,99715.59
2022-09-07T10:51:14.668Z,99714.75
2022-09-07T10:56:54.247Z,99706.25
2022-09-07T11:02:31.045Z,99700.97
2022-09-07T11:05:09.956Z,99695.84
2022-09-07T11:08:02.913Z,99686.59
2022-09-07T11:10:43.178Z,99696.75
2022-09-07T11:13:22.350Z,99692.47
2022-09-07T11:15:54.793Z,99686.41
2022-09-07T11:18:28.547Z,99679.44
2022-09-07T11:21:00.958Z,99672.47
2022-09-07T11:23:37.865Z,99675.41
2022-09-07T11:26:18.158Z,99668.53
2022-09-07T11:29:29.280Z,99674.66
2022-09-07T11:31:41.956Z,99663.66
2022-09-07T11:34:24.592Z,99666.25
2022-09-07T11:36:58.441Z,99668.88
2022-09-07T11:39:31.570Z,99670.44
2022-09-07T11:42:42.868Z,99672.03
2022-09-07T11:44:56.908Z,99662.66
2022-09-07T11:47:31.000Z,99662.75
2022-09-07T11:49:59.625Z,99660.09
2022-09-07T11:52:35.306Z,99658.25
2022-09-07T11:55:07.380Z,99660.56
2022-09-07T11:57:53.677Z,99651.91
2022-09-07T12:00:30.026Z,99646.53
2022-09-07T12:03:39.040Z,99648.03
2022-09-07T12:06:28.443Z,99643.53
2022-09-07T12:09:14.721Z,99639.88
2022-09-07T12:12:12.438Z,99641.44
2022-09-07T12:14:56.337Z,99631.25
2022-09-07T12:17:36.401Z,99635.22
2022-09-07T12:20:15.568Z,99632.38
2022-09-07T12:23:02.198Z,99626.97
2022-09-07T12:25:33.379Z,99622.56
2022-09-07T12:28:02.164Z,99611.31
2022-09-07T12:30:55.662Z,99622.91
2022-09-07T12:33:32.249Z,99618.28
2022-09-07T12:36:01.029Z,99615.41
2022-09-07T12:39:24.766Z,99618.69
2022-09-07T12:44:43.012Z,99602.69
2022-09-07T12:47:30.961Z,99596.25
2022-09-07T12:50:29.472Z,99596.56
2022-09-07T12:53:21.132Z,99591.28
2022-09-07T12:56:17.547Z,99590.84
2022-09-07T12:59:06.256Z,99594.72
2022-09-07T13:01:47.325Z,99592.47
2022-09-07T13:04:31.848Z,99590.38
2022-09-07T13:07:38.617Z,99599.22
2022-09-07T13:10:31.176Z,99588.66
2022-09-07T13:13:04.455Z,99586.69
2022-09-07T13:15:44.436Z,99583.91
2022-09-07T13:18:28.518Z,99580.69
2022-09-07T13:21:33.187Z,99582.53
2022-09-07T13:24:47.286Z,99583.00
2022-09-07T13:27:30.193Z,99570.00
2022-09-07T13:30:03.035Z,99574.84
2022-09-07T13:35:23.647Z,99577.50
2022-09-07T13:37:56.098Z,99572.66
2022-09-07T13:40:27.542Z,99574.75
2022-09-07T13:42:57.733Z,99570.97
2022-09-07T13:45:33.202Z,99565.31
2022-09-07T13:48:14.227Z,99562.63
2022-09-07T13:50:48.301Z,99558.53
2022-09-07T13:53:35.210Z,99562.25
2022-09-07T13:56:16.508Z,99557.69
2022-09-07T13:58:47.347Z,99556.31
2022-09-07T14:01:20.986Z,99552.28
2022-09-07T14:03:52.289Z,99537.47
2022-09-07T14:06:32.586Z,99540.56
2022-09-07T14:09:04.535Z,99540.31
2022-09-07T14:11:41.494Z,99551.44
2022-09-07T14:14:23.561Z,99552.25
2022-09-07T14:16:57.514Z,99533.91
2022-09-07T14:19:28.068Z,99538.28
2022-09-07T14:21:57.825Z,99533.88
2022-09-07T14:24:34.289Z,99526.94
2022-09-07T14:27:02.641Z,99533.00
2022-09-07T14:29:32.432Z,99536.25
2022-09-07T14:32:02.046Z,99525.34
2022-09-07T14:34:34.642Z,99538.28
2022-09-07T14:37:06.765Z,99525.34
2022-09-07T14:39:40.445Z,99532.00
2022-09-07T14:42:11.570Z,99536.53
2022-09-07T14:44:42.947Z,99530.50
2022-09-07T14:47:24.400Z,99524.75
2022-09-07T14:49:53.065Z,99530.19
2022-09-07T14:52:24.333Z,99528.06
2022-09-07T14:54:54.600Z,99529.38
2022-09-07T14:57:31.716Z,99523.59
2022-09-07T15:00:19.621Z,99524.97
2022-09-07T15:02:47.649Z,99523.38
2022-09-07T15:05:25.773Z,99521.31
2022-09-07T15:07:56.039Z,99528.47
2022-09-07T15:10:32.746Z,99527.34
2022-09-07T15:13:01.988Z,99524.91
2022-09-07T15:15:32.995Z,99532.50
2022-09-07T15:18:08.747Z,99521.09
2022-09-07T15:20:43.159Z,99527.56
2022-09-07T15:23:13.344Z,99531.03
2022-09-07T15:25:48.231Z,99531.03
2022-09-07T15:34:02.814Z,99523.03
2022-09-07T15:36:32.090Z,99519.56
2022-09-07T15:39:00.668Z,99523.91
2022-09-07T15:41:30.397Z,99512.59
2022-09-07T15:43:58.213Z,99514.81
2022-09-07T15:46:26.383Z,99508.63
2022-09-07T15:48:56.100Z,99507.44
2022-09-07T15:54:14.267Z,99509.19
2022-09-07T15:57:48.077Z,99504.72
2022-09-07T15:59:32.401Z,99511.03
2022-09-07T16:02:00.700Z,99508.78
2022-09-07T16:04:28.881Z,99507.44
2022-09-07T16:06:56.791Z,99507.72
2022-09-07T16:09:24.927Z,99502.97
2022-09-07T16:11:54.764Z,99506.59
2022-09-07T16:14:22.991Z,99496.75
2022-09-07T16:19:41.097Z,99500.75
2022-09-07T16:22:09.651Z,99497.56
2022-09-07T16:24:37.726Z,99505.47
2022-09-07T16:27:07.149Z,99504.00
2022-09-07T16:29:34.989Z,99499.13
2022-09-07T16:34:51.725Z,99491.03
2022-09-07T16:37:19.629Z,99492.09
2022-09-07T16:39:47.457Z,99498.22
2022-09-07T16:42:16.657Z,99493.34
2022-09-07T16:44:44.524Z,99479.22
2022-09-07T16:47:12.756Z,99485.34
2022-09-07T16:49:40.633Z,99479.59
2022-09-07T16:52:10.946Z,99484.69
2022-09-07T16:54:38.855Z,99486.56
2022-09-07T16:57:06.795Z,99480.78
2022-09-07T16:59:35.974Z,99477.63
2022-09-07T17:02:03.819Z,99484.59
2022-09-07T17:04:31.801Z,99480.47
2022-09-07T17:06:59.613Z,99474.72
2022-09-07T17:09:28.625Z,99475.72
2022-09-07T17:11:56.485Z,99478.41
2022-09-07T17:14:24.323Z,99466.75
2022-09-07T17:16:53.514Z,99471.03
2022-09-07T17:19:30.068Z,99471.22
2022-09-07T17:21:59.682Z,99478.16
2022-09-07T17:24:27.575Z,99467.41
2022-09-07T17:26:55.528Z,99476.78
2022-09-07T17:29:23.344Z,99471.78
2022-09-07T17:34:40.620Z,99472.84
2022-09-07T17:37:09.372Z,99465.31
2022-09-07T17:39:38.629Z,99473.03
2022-09-07T17:42:07.310Z,99463.75
2022-09-07T17:44:38.059Z,99466.38
2022-09-07T17:47:08.004Z,99473.22
2022-09-07T17:49:35.812Z,99473.31
2022-09-07T17:52:03.891Z,99476.84
2022-09-07T17:54:31.889Z,99471.88
2022-09-07T17:56:59.859Z,99477.03
2022-09-07T18:02:16.957Z,99473.84
2022-09-07T18:04:44.856Z,99477.28
2022-09-07T18:07:13.098Z,99490.97
2022-09-07T18:09:40.891Z,99482.59
2022-09-07T18:12:09.003Z,99484.34
2022-09-07T18:14:36.880Z,99485.22
2022-09-07T18:17:05.072Z,99489.44
2022-09-07T18:19:34.430Z,99480.91
2022-09-07T18:22:03.817Z,99483.50
2022-09-07T18:24:31.791Z,99489.47
2022-09-07T18:26:59.574Z,99492.84
2022-09-07T18:29:31.068Z,99498.00
2022-09-07T18:32:01.168Z,99509.13
2022-09-07T18:34:30.705Z,99514.22
2022-09-07T18:37:00.216Z,99512.56
2022-09-07T18:39:29.043Z,99523.59
2022-09-07T18:41:57.329Z,99521.91
2022-09-07T18:47:21.764Z,99536.41
2022-09-07T18:49:51.274Z,99528.88
2022-09-07T18:55:10.287Z,99510.31
2022-09-07T18:57:38.849Z,99522.19
2022-09-07T19:00:09.437Z,99520.50
2022-09-07T19:02:37.344Z,99523.06
2022-09-07T19:07:55.226Z,99518.13
2022-09-07T19:10:23.037Z,99514.69
2022-09-07T19:12:50.892Z,99517.25
2022-09-07T19:15:20.358Z,99510.47
2022-09-07T19:17:48.165Z,99510.53
2022-09-07T19:20:15.987Z,99520.72
2022-09-07T19:22:43.852Z,99510.59
2022-09-07T19:25:13.047Z,99523.41
2022-09-07T19:27:40.868Z,99516.72
2022-09-07T19:30:10.073Z,99521.03
2022-09-07T19:32:38.045Z,99517.63
2022-09-07T19:35:06.393Z,99517.66
2022-09-07T19:37:34.702Z,99513.44
2022-09-07T19:40:02.938Z,99517.66
2022-09-07T19:42:32.669Z,99510.09
2022-09-07T19:45:00.833Z,99511.06
2022-09-07T19:47:28.617Z,99512.81
2022-09-07T19:49:56.400Z,99495.16
2022-09-07T19:52:24.209Z,99491.84
2022-09-07T19:54:51.982Z,99491.06
2022-09-07T19:57:19.822Z,99492.88
2022-09-07T19:59:48.929Z,99499.75
2022-09-07T20:02:16.804Z,99492.16
2022-09-07T20:04:44.593Z,99489.69
2022-09-07T20:07:13.341Z,99485.47
2022-09-07T20:09:41.157Z,99479.50
2022-09-07T20:12:09.956Z,99479.47
2022-09-07T20:14:38.043Z,99478.53
2022-09-07T20:17:07.196Z,99481.09
2022-09-07T20:19:35.005Z,99486.16
2022-09-07T20:22:02.787Z,99495.63
2022-09-07T20:24:31.288Z,99494.94
2022-09-07T20:26:59.091Z,99490.00
2022-09-07T20:29:28.592Z,99496.81
2022-09-07T20:31:57.693Z,99496.84
2022-09-07T20:34:27.348Z,99491.84
2022-09-07T20:36:56.718Z,99497.81
2022-09-07T20:39:24.560Z,99503.00
2022-09-07T20:41:52.629Z,99500.53
2022-09-07T20:44:20.641Z,99487.22
2022-09-07T20:46:48.580Z,99495.69
2022-09-07T20:49:16.929Z,99490.66
2022-09-07T20:51:46.095Z,99496.59
2022-09-07T20:54:13.907Z,99499.16
2022-09-07T20:56:41.708Z,99490.72
2022-09-07T20:59:09.705Z,99494.97
2022-09-07T21:01:37.512Z,99499.22
2022-09-07T21:04:06.178Z,99503.50
2022-09-07T21:06:34.289Z,99499.34
2022-09-07T21:09:03.487Z,99494.47
2022-09-07T21:11:33.547Z,99505.72
2022-09-07T21:14:02.925Z,99505.81
2022-09-07T21:16:30.955Z,99507.56
2022-09-07T21:19:00.849Z,99512.75
2022-09-07T21:21:30.032Z,99505.16
2022-09-07T21:24:00.149Z,99513.63
2022-09-07T21:26:29.725Z,99517.81
2022-09-07T21:28:58.951Z,99511.94
2022-09-07T21:31:27.239Z,99503.44
2022-09-07T21:33:56.849Z,99505.00
2022-09-07T21:36:25.613Z,99500.66
2022-09-07T21:38:54.410Z,99506.44
2022-09-07T21:41:23.907Z,99499.53
2022-09-07T21:43:56.425Z,99502.00
2022-09-07T21:46:25.177Z,99491.78
2022-09-07T21:48:53.160Z,99492.63
2022-09-07T21:51:21.058Z,99495.16
2022-09-07T21:53:53.594Z,99495.91
2022-09-07T21:56:22.301Z,99494.13
2022-09-07T21:58:54.127Z,99484.75
2022-09-07T22:01:24.886Z,99487.25
2022-09-07T22:03:56.238Z,99492.34
2022-09-07T22:06:24.928Z,99485.63
2022-09-07T22:08:53.400Z,99480.66
2022-09-07T22:11:23.530Z,99463.19
2022-09-07T22:13:55.480Z,99467.44
2022-09-07T22:16:24.826Z,99480.91
2022-09-07T22:18:53.306Z,99480.13
2022-09-07T22:21:23.989Z,99484.50
2022-09-07T22:23:53.633Z,99476.78
2022-09-07T22:26:23.804Z,99475.94
2022-09-07T22:28:51.968Z,99477.59
2022-09-07T22:31:22.371Z,99481.19
2022-09-07T22:33:52.715Z,99476.19
2022-09-07T22:36:22.981Z,99467.81
2022-09-07T22:38:53.916Z,99476.34
2022-09-07T22:41:24.039Z,99458.69
2022-09-07T22:43:51.890Z,99467.91
2022-09-07T22:46:22.273Z,99478.88
2022-09-07T22:48:51.721Z,99465.41
2022-09-07T22:51:19.843Z,99477.28
2022-09-07T22:53:47.764Z,99472.25
2022-09-07T22:56:18.449Z,99472.19
2022-09-07T22:58:46.818Z,99460.34
2022-09-07T23:01:14.868Z,99456.03
2022-09-07T23:03:44.137Z,99451.78
2022-09-07T23:06:21.426Z,99440.69
2022-09-07T23:08:49.410Z,99440.78
2022-09-07T23:11:17.413Z,99445.88
2022-09-07T23:13:45.301Z,99431.59
2022-09-07T23:16:13.196Z,99448.44
2022-09-07T23:18:41.522Z,99433.22
2022-09-07T23:21:09.340Z,99430.69
2022-09-07T23:23:38.631Z,99428.09
2022-09-07T23:26:07.034Z,99420.53
2022-09-07T23:28:35.426Z,99427.44
2022-09-07T23:31:03.220Z,99424.09
2022-09-07T23:33:31.570Z,99414.84
2022-09-07T23:36:01.596Z,99409.94
2022-09-07T23:38:29.920Z,99416.84
2022-09-07T23:41:00.862Z,99411.06
2022-09-07T23:43:30.087Z,99406.78
2022-09-07T23:45:59.774Z,99411.00
2022-09-07T23:48:27.784Z,99406.78
2022-09-07T23:50:55.663Z,99409.38
2022-09-07T23:53:23.711Z,99407.81
2022-09-07T23:55:53.116Z,99403.66
2022-09-07T23:58:23.073Z,99405.44
